Aviation Digital Data Service (ADDS)

Output produced by METARs form (1631 UTC 16 June 2019)
found at http://www.aviationweather.gov/metar/data/
 
METAR text: RJSY 161200Z 27024KT 5000 -SHRA BR FEW003 SCT006 BKN010 16/15 Q0997
Conditions at: RJSY (SHONAI , JP) observed 1200 UTC 16 June 2019
Temperature: 16.0°C (61°F)
Dewpoint: 15.0°C (59°F) [RH = 94%]
Pressure (altimeter): 29.44 inches Hg (997.0 mb)
Winds: from the W (270 degrees) at 28 MPH (24 knots; 12.3 m/s)
Visibility: 3 miles ( 5 km)
Ceiling: 1000 feet AGL
Clouds: few clouds at 300 feet AGL
scattered clouds at 600 feet AGL
broken clouds at 1000 feet AGL
Weather: -SHRA BR  (light rain showers, mist)

METAR text: RJSY 161100Z 27024KT 5000 -SHRA BR FEW004 SCT007 BKN010 16/16 Q0995
Conditions at: RJSY (SHONAI , JP) observed 1100 UTC 16 June 2019
Temperature: 16.0°C (61°F)
Dewpoint: 16.0°C (61°F) [RH = 100%]
Pressure (altimeter): 29.38 inches Hg (995.0 mb)
Winds: from the W (270 degrees) at 28 MPH (24 knots; 12.3 m/s)
Visibility: 3 miles ( 5 km)
Ceiling: 1000 feet AGL
Clouds: few clouds at 400 feet AGL
scattered clouds at 700 feet AGL
broken clouds at 1000 feet AGL
Weather: -SHRA BR  (light rain showers, mist)

METAR text: RJSY 161000Z 26023KT 3500 SHRA BR FEW003 SCT005 BKN007 16/16 Q0995
Conditions at: RJSY (SHONAI , JP) observed 1000 UTC 16 June 2019
Temperature: 16.0°C (61°F)
Dewpoint: 16.0°C (61°F) [RH = 100%]
Pressure (altimeter): 29.38 inches Hg (995.0 mb)
Winds: from the W (260 degrees) at 26 MPH (23 knots; 11.8 m/s)
Visibility: 2.17 miles (3.49 km)
Ceiling: 700 feet AGL
Clouds: few clouds at 300 feet AGL
scattered clouds at 500 feet AGL
broken clouds at 700 feet AGL
Weather: SHRA BR  (rain showers, mist)

METAR text: RJSY 160900Z 27022G32KT 3500 R09/2000N SHRA BR FEW003 SCT005 BKN007 16/16 Q0992
Conditions at: RJSY (SHONAI , JP) observed 0900 UTC 16 June 2019
Temperature: 16.0°C (61°F)
Dewpoint: 16.0°C (61°F) [RH = 100%]
Pressure (altimeter): 29.29 inches Hg (992.0 mb)
Winds: from the W (270 degrees) at 25 MPH (22 knots; 11.3 m/s)
gusting to 37 MPH (32 knots; 16.5 m/s)
Visibility: 2.17 miles (3.49 km)
Ceiling: 700 feet AGL
Clouds: few clouds at 300 feet AGL
scattered clouds at 500 feet AGL
broken clouds at 700 feet AGL
Weather: SHRA BR  (rain showers, mist)

METAR text: RJSY 160800Z 24022G33KT 210V270 4000 -SHRA BR FEW003 SCT005 BKN008 18/17 Q0990
Conditions at: RJSY (SHONAI , JP) observed 0800 UTC 16 June 2019
Temperature: 18.0°C (64°F)
Dewpoint: 17.0°C (63°F) [RH = 94%]
Pressure (altimeter): 29.23 inches Hg (990.0 mb)
Winds: from the WSW (240 degrees) at 25 MPH (22 knots; 11.3 m/s)
gusting to 38 MPH (33 knots; 17.0 m/s)
Visibility: 2.49 miles (4.01 km)
Ceiling: 800 feet AGL
Clouds: few clouds at 300 feet AGL
scattered clouds at 500 feet AGL
broken clouds at 800 feet AGL
Weather: -SHRA BR  (light rain showers, mist)

METAR text: RJSY 160700Z 23024G34KT 4000 -SHRA BR FEW004 SCT007 BKN015 18/17 Q0989
Conditions at: RJSY (SHONAI , JP) observed 0700 UTC 16 June 2019
Temperature: 18.0°C (64°F)
Dewpoint: 17.0°C (63°F) [RH = 94%]
Pressure (altimeter): 29.20 inches Hg (989.0 mb)
Winds: from the SW (230 degrees) at 28 MPH (24 knots; 12.3 m/s)
gusting to 39 MPH (34 knots; 17.5 m/s)
Visibility: 2.49 miles (4.01 km)
Ceiling: 1500 feet AGL
Clouds: few clouds at 400 feet AGL
scattered clouds at 700 feet AGL
broken clouds at 1500 feet AGL
Weather: -SHRA BR  (light rain showers, mist)

METAR text: RJSY 160600Z 24026G42KT 4000 R09/1600VP2000N -SHRA BR FEW004 SCT008 BKN015 18/17 Q0988
Conditions at: RJSY (SHONAI , JP) observed 0600 UTC 16 June 2019
Temperature: 18.0°C (64°F)
Dewpoint: 17.0°C (63°F) [RH = 94%]
Pressure (altimeter): 29.17 inches Hg (988.0 mb)
Winds: from the WSW (240 degrees) at 30 MPH (26 knots; 13.4 m/s)
gusting to 48 MPH (42 knots; 21.6 m/s)
Visibility: 2.49 miles (4.01 km)
Ceiling: 1500 feet AGL
Clouds: few clouds at 400 feet AGL
scattered clouds at 800 feet AGL
broken clouds at 1500 feet AGL
Weather: -SHRA BR  (light rain showers, mist)

METAR text: RJSY 160538Z 24028G44KT 3500 -SHRA BR FEW004 SCT008 BKN015 18/17 Q0988 RMK 1ST004 3ST008 5CU015 A2919
Conditions at: RJSY (SHONAI , JP) observed 0538 UTC 16 June 2019
Temperature: 18.0°C (64°F)
Dewpoint: 17.0°C (63°F) [RH = 94%]
Pressure (altimeter): 29.17 inches Hg (988.0 mb)
Winds: from the WSW (240 degrees) at 32 MPH (28 knots; 14.4 m/s)
gusting to 51 MPH (44 knots; 22.6 m/s)
Visibility: 2.17 miles (3.49 km)
Ceiling: 1500 feet AGL
Clouds: few clouds at 400 feet AGL
scattered clouds at 800 feet AGL
broken clouds at 1500 feet AGL
Weather: -SHRA BR  (light rain showers, mist)

METAR text: RJSY 160500Z 24027G39KT 5000 -SHRA BR FEW005 SCT010 BKN015 18/17 Q0987
Conditions at: RJSY (SHONAI , JP) observed 0500 UTC 16 June 2019
Temperature: 18.0°C (64°F)
Dewpoint: 17.0°C (63°F) [RH = 94%]
Pressure (altimeter): 29.14 inches Hg (987.0 mb)
Winds: from the WSW (240 degrees) at 31 MPH (27 knots; 13.9 m/s)
gusting to 45 MPH (39 knots; 20.1 m/s)
Visibility: 3 miles ( 5 km)
Ceiling: 1500 feet AGL
Clouds: few clouds at 500 feet AGL
scattered clouds at 1000 feet AGL
broken clouds at 1500 feet AGL
Weather: -SHRA BR  (light rain showers, mist)

METAR text: RJSY 160440Z 23026KT 5000 -SHRA BR FEW003 SCT007 BKN010 18/17 Q0987 RMK 1ST003 3ST007 5ST010 A2916
Conditions at: RJSY (SHONAI , JP) observed 0440 UTC 16 June 2019
Temperature: 18.0°C (64°F)
Dewpoint: 17.0°C (63°F) [RH = 94%]
Pressure (altimeter): 29.14 inches Hg (987.0 mb)
Winds: from the SW (230 degrees) at 30 MPH (26 knots; 13.4 m/s)
Visibility: 3 miles ( 5 km)
Ceiling: 1000 feet AGL
Clouds: few clouds at 300 feet AGL
scattered clouds at 700 feet AGL
broken clouds at 1000 feet AGL
Weather: -SHRA BR  (light rain showers, mist)

METAR text: RJSY 160400Z 24029G39KT 3500 R09/2000N -SHRA BR FEW003 SCT005 BKN007 18/17 Q0987
Conditions at: RJSY (SHONAI , JP) observed 0400 UTC 16 June 2019
Temperature: 18.0°C (64°F)
Dewpoint: 17.0°C (63°F) [RH = 94%]
Pressure (altimeter): 29.14 inches Hg (987.0 mb)
Winds: from the WSW (240 degrees) at 33 MPH (29 knots; 14.9 m/s)
gusting to 45 MPH (39 knots; 20.1 m/s)
Visibility: 2.17 miles (3.49 km)
Ceiling: 700 feet AGL
Clouds: few clouds at 300 feet AGL
scattered clouds at 500 feet AGL
broken clouds at 700 feet AGL
Weather: -SHRA BR  (light rain showers, mist)

METAR text: RJSY 160300Z 23025G37KT 3000 R09/1900D -SHRA BR FEW003 SCT005 BKN010 18/18 Q0986
Conditions at: RJSY (SHONAI , JP) observed 0300 UTC 16 June 2019
Temperature: 18.0°C (64°F)
Dewpoint: 18.0°C (64°F) [RH = 100%]
Pressure (altimeter): 29.11 inches Hg (986.0 mb)
Winds: from the SW (230 degrees) at 29 MPH (25 knots; 12.9 m/s)
gusting to 43 MPH (37 knots; 19.0 m/s)
Visibility: 1.86 miles (2.99 km)
Ceiling: 1000 feet AGL
Clouds: few clouds at 300 feet AGL
scattered clouds at 500 feet AGL
broken clouds at 1000 feet AGL
Weather: -SHRA BR  (light rain showers, mist)

METAR text: RJSY 160200Z 23016G26KT 8000 -SHRA FEW005 SCT012 BKN020 19/18 Q0986
Conditions at: RJSY (SHONAI , JP) observed 0200 UTC 16 June 2019
Temperature: 19.0°C (66°F)
Dewpoint: 18.0°C (64°F) [RH = 94%]
Pressure (altimeter): 29.11 inches Hg (986.0 mb)
Winds: from the SW (230 degrees) at 18 MPH (16 knots; 8.2 m/s)
gusting to 30 MPH (26 knots; 13.4 m/s)
Visibility: 5 miles ( 8 km)
Ceiling: 2000 feet AGL
Clouds: few clouds at 500 feet AGL
scattered clouds at 1200 feet AGL
broken clouds at 2000 feet AGL
Weather: -SHRA  (light rain showers)

METAR text: RJSY 160100Z 23014KT 5000 -SHRA BR FEW007 SCT013 BKN020 19/18 Q0985
Conditions at: RJSY (SHONAI , JP) observed 0100 UTC 16 June 2019
Temperature: 19.0°C (66°F)
Dewpoint: 18.0°C (64°F) [RH = 94%]
Pressure (altimeter): 29.08 inches Hg (985.0 mb)
Winds: from the SW (230 degrees) at 16 MPH (14 knots; 7.2 m/s)
Visibility: 3 miles ( 5 km)
Ceiling: 2000 feet AGL
Clouds: few clouds at 700 feet AGL
scattered clouds at 1300 feet AGL
broken clouds at 2000 feet AGL
Weather: -SHRA BR  (light rain showers, mist)

METAR text: RJSY 160000Z 21008KT 180V250 8000 -SHRA FEW010 BKN015 BKN020 20/18 Q0985
Conditions at: RJSY (SHONAI , JP) observed 0000 UTC 16 June 2019
Temperature: 20.0°C (68°F)
Dewpoint: 18.0°C (64°F) [RH = 88%]
Pressure (altimeter): 29.08 inches Hg (985.0 mb)
Winds: from the SSW (210 degrees) at 9 MPH (8 knots; 4.1 m/s)
Visibility: 5 miles ( 8 km)
Ceiling: 1500 feet AGL
Clouds: few clouds at 1000 feet AGL
broken clouds at 1500 feet AGL
broken clouds at 2000 feet AGL
Weather: -SHRA  (light rain showers)

METAR text: RJSY 152300Z 20006KT 140V250 9999 -SHRA FEW010 SCT015 BKN020 21/17 Q0986
Conditions at: RJSY (SHONAI , JP) observed 2300 UTC 15 June 2019
Temperature: 21.0°C (70°F)
Dewpoint: 17.0°C (63°F) [RH = 78%]
Pressure (altimeter): 29.11 inches Hg (986.0 mb)
Winds: from the SSW (200 degrees) at 7 MPH (6 knots; 3.1 m/s)
Visibility: 6 or more miles (10+ km)
Ceiling: 2000 feet AGL
Clouds: few clouds at 1000 feet AGL
scattered clouds at 1500 feet AGL
broken clouds at 2000 feet AGL
Weather: -SHRA  (light rain showers)

METAR text: RJSY 152200Z 24011KT 9999 VCSH FEW015 BKN020 BKN030 20/17 Q0986
Conditions at: RJSY (SHONAI , JP) observed 2200 UTC 15 June 2019
Temperature: 20.0°C (68°F)
Dewpoint: 17.0°C (63°F) [RH = 83%]
Pressure (altimeter): 29.11 inches Hg (986.0 mb)
Winds: from the WSW (240 degrees) at 13 MPH (11 knots; 5.7 m/s)
Visibility: 6 or more miles (10+ km)
Ceiling: 2000 feet AGL
Clouds: few clouds at 1500 feet AGL
broken clouds at 2000 feet AGL
broken clouds at 3000 feet AGL
Weather: VCSH  (showers in vicinity)

METAR text: RJSY 151200Z 10021G32KT 9999 FEW015 SCT040 BKN090 19/14 Q0993
Conditions at: RJSY (SHONAI , JP) observed 1200 UTC 15 June 2019
Temperature: 19.0°C (66°F)
Dewpoint: 14.0°C (57°F) [RH = 73%]
Pressure (altimeter): 29.32 inches Hg (993.0 mb)
Winds: from the E (100 degrees) at 24 MPH (21 knots; 10.8 m/s)
gusting to 37 MPH (32 knots; 16.5 m/s)
Visibility: 6 or more miles (10+ km)
Ceiling: 9000 feet AGL
Clouds: few clouds at 1500 feet AGL
scattered clouds at 4000 feet AGL
broken clouds at 9000 feet AGL
Weather: no significant weather observed at this time

METAR text: RJSY 151100Z 11021KT 9999 FEW015 SCT030 BKN090 19/14 Q0993
Conditions at: RJSY (SHONAI , JP) observed 1100 UTC 15 June 2019
Temperature: 19.0°C (66°F)
Dewpoint: 14.0°C (57°F) [RH = 73%]
Pressure (altimeter): 29.32 inches Hg (993.0 mb)
Winds: from the ESE (110 degrees) at 24 MPH (21 knots; 10.8 m/s)
Visibility: 6 or more miles (10+ km)
Ceiling: 9000 feet AGL
Clouds: few clouds at 1500 feet AGL
scattered clouds at 3000 feet AGL
broken clouds at 9000 feet AGL
Weather: no significant weather observed at this time

METAR text: RJSY 151000Z 10024G37KT 9999 FEW015 SCT040 BKN100 20/14 Q0994
Conditions at: RJSY (SHONAI , JP) observed 1000 UTC 15 June 2019
Temperature: 20.0°C (68°F)
Dewpoint: 14.0°C (57°F) [RH = 68%]
Pressure (altimeter): 29.35 inches Hg (994.0 mb)
Winds: from the E (100 degrees) at 28 MPH (24 knots; 12.3 m/s)
gusting to 43 MPH (37 knots; 19.0 m/s)
Visibility: 6 or more miles (10+ km)
Ceiling: 10000 feet AGL
Clouds: few clouds at 1500 feet AGL
scattered clouds at 4000 feet AGL
broken clouds at 10000 feet AGL
Weather: no significant weather observed at this time

METAR text: RJSY 150900Z 10025G38KT 9999 FEW015 SCT070 BKN180 20/14 Q0994
Conditions at: RJSY (SHONAI , JP) observed 0900 UTC 15 June 2019
Temperature: 20.0°C (68°F)
Dewpoint: 14.0°C (57°F) [RH = 68%]
Pressure (altimeter): 29.35 inches Hg (994.0 mb)
Winds: from the E (100 degrees) at 29 MPH (25 knots; 12.9 m/s)
gusting to 44 MPH (38 knots; 19.5 m/s)
Visibility: 6 or more miles (10+ km)
Ceiling: 18000 feet AGL
Clouds: few clouds at 1500 feet AGL
scattered clouds at 7000 feet AGL
broken clouds at 18000 feet AGL
Weather: no significant weather observed at this time

METAR text: RJSY 150800Z 10027KT 9999 FEW020 SCT050 BKN100 20/14 Q0994
Conditions at: RJSY (SHONAI , JP) observed 0800 UTC 15 June 2019
Temperature: 20.0°C (68°F)
Dewpoint: 14.0°C (57°F) [RH = 68%]
Pressure (altimeter): 29.35 inches Hg (994.0 mb)
Winds: from the E (100 degrees) at 31 MPH (27 knots; 13.9 m/s)
Visibility: 6 or more miles (10+ km)
Ceiling: 10000 feet AGL
Clouds: few clouds at 2000 feet AGL
scattered clouds at 5000 feet AGL
broken clouds at 10000 feet AGL
Weather: no significant weather observed at this time

METAR text: RJSY 150700Z 09025KT 9999 FEW020 SCT050 BKN080 21/14 Q0996
Conditions at: RJSY (SHONAI , JP) observed 0700 UTC 15 June 2019
Temperature: 21.0°C (70°F)
Dewpoint: 14.0°C (57°F) [RH = 64%]
Pressure (altimeter): 29.41 inches Hg (996.0 mb)
Winds: from the E (90 degrees) at 29 MPH (25 knots; 12.9 m/s)
Visibility: 6 or more miles (10+ km)
Ceiling: 8000 feet AGL
Clouds: few clouds at 2000 feet AGL
scattered clouds at 5000 feet AGL
broken clouds at 8000 feet AGL
Weather: no significant weather observed at this time

METAR text: RJSY 150600Z 10022G33KT 9999 FEW020 SCT050 BKN090 22/13 Q0997
Conditions at: RJSY (SHONAI , JP) observed 0600 UTC 15 June 2019
Temperature: 22.0°C (72°F)
Dewpoint: 13.0°C (55°F) [RH = 57%]
Pressure (altimeter): 29.44 inches Hg (997.0 mb)
Winds: from the E (100 degrees) at 25 MPH (22 knots; 11.3 m/s)
gusting to 38 MPH (33 knots; 17.0 m/s)
Visibility: 6 or more miles (10+ km)
Ceiling: 9000 feet AGL
Clouds: few clouds at 2000 feet AGL
scattered clouds at 5000 feet AGL
broken clouds at 9000 feet AGL
Weather: no significant weather observed at this time

METAR text: RJSY 150500Z 10020KT 9999 FEW020 SCT070 BKN090 22/14 Q0999
Conditions at: RJSY (SHONAI , JP) observed 0500 UTC 15 June 2019
Temperature: 22.0°C (72°F)
Dewpoint: 14.0°C (57°F) [RH = 60%]
Pressure (altimeter): 29.50 inches Hg (999.0 mb)
Winds: from the E (100 degrees) at 23 MPH (20 knots; 10.3 m/s)
Visibility: 6 or more miles (10+ km)
Ceiling: 9000 feet AGL
Clouds: few clouds at 2000 feet AGL
scattered clouds at 7000 feet AGL
broken clouds at 9000 feet AGL
Weather: no significant weather observed at this time